Marietta, Mississippi
Current Conditions -  °F | °C
As of 9:53 AM on Friday 28 Nov 2014 (Local Time) from KTUP Reporting Station
Clear Clear  
Wind Chill: 35°   Ceiling: Unl
Heat Index: 40°   Visibility: 10mi
Dew Point: 27°   Wind: 7mph
Humidity: 60%   Direction: 210°SSW
Pressure: 30.44"   Gusts: NA
Location:  34.5°N, 88.47°W
Report Text: KTUP 281553Z 21006KT 10SM CLR 04/M03 A3044 RMK AO2 SLP310 T00441028
Loading
Personal Weather Stations






























Interactive Weather Map New forecast layout! Learn more

10-Day Weather Forecast

Advertisements
Track Severe Weather on mobile